KDYS/DYS METAR and TAF weather

Enter ICAO airport designator
Station Type Date Time Source
KDYS METAR 2020/04/05 18:56 UTC NOAA

KDYS 051856Z AUTO 15010KT 10SM OVC011 16/11 A3002 RMK AO2 SLP153 T01580110


Station Type Date Time Source
KDYS Decoded METAR 2020/04/05 18:56 UTC NOAA

Abilene, Dyess Air Force Base, TX, United States (KDYS) 32-25-12N 099-51-25W
Apr 05, 2020 - 02:56 PM EDT / 2020.04.05 1856 UTC
Wind: from the SSE (150 degrees) at 12 MPH (10 KT):0
Visibility: 10 mile(s):0
Sky conditions: overcast
Temperature: 60.4 F (15.8 C)
Dew Point: 51.8 F (11.0 C)
Relative Humidity: 73%
Pressure (altimeter): 30.02 in. Hg (1016 hPa)
ob: KDYS 051856Z AUTO 15010KT 10SM OVC011 16/11 A3002 RMK AO2 SLP153 T01580110
cycle: 19

Station Type Date Time Source
KDYS TAF 2020/04/05 18:06 UTC NOAA

TAF KDYS 051803Z 0518/0622 14010G15KT 9999 BKN008 BKN200 QNH2997INS
BECMG 0519/0520 16010G15KT 9999 BKN015 BKN200 QNH2991INS
BECMG 0602/0603 16012KT 9999 BKN010 QNH2994INS
BECMG 0605/0606 17012KT 8000 BR OVC007 QNH2992INS
BECMG 0611/0612 18012KT 9000 -SHRA OVC010 QNH2994INS
BECMG 0614/0615 19012G20KT 9000 -SHRA BKN015 QNH2990INS
BECMG 0619/0620 19012G20KT 9999 NSW SCT020 SCT100 BKN180 QNH2986INS TX21/0521Z TN14/0518Z

Example: see airport list